Accueil
METAR-TAF:

METAR-TAF

Aéroports :

Locarno, Suisse

latitude: 46-09-55N, longitude: 8-52-40E, altitude: 198 m

Observation

Le bulletin a été fait il y a 30 minutes, à 00:50 UTC
Vent 2 kt de direction variable
Température 14°C
Humidité 94%
Pression 1018 hPa
Visibilité 10 km ou plus
Nuages épars à une hauteur de 6000 ft
Nuages fragmentés à une hauteur de 12000 ft

METAR: LSZL 210050Z AUTO VRB02KT 9999NDV SCT060 BKN120 14/13 Q1018 RMK

Heure: 03:20 (01:20 UTC)


TAF: absent

Observations et prévisions météorologiques de plus de 4000 aéroports (messages METAR et TAF).

Les stations disponibles sont représentées par des disques jaunes et rouges sur la carte.

Passer la souris dessus pour voir le nom de la station.

Cliquer dessus pour voir les observations et prévisions météorologiques.

Pour changer de carte: cliquez sur les boutons verts avec une croix noire pour zoomer, sur le bouton vert avec un tiret pour effectuer un zoom arrière, ou sur les flèches vertes pour les cartes adjacentes.


METAR-TAF: